createdAt,value
2018-01-18T00:00:52.177Z,7.40
2018-01-18T00:03:19.599Z,7.15
2018-01-18T00:05:47.010Z,7.22
2018-01-18T00:08:14.430Z,6.10
2018-01-18T00:10:41.865Z,6.15
2018-01-18T00:13:10.063Z,6.65
2018-01-18T00:15:38.269Z,7.62
2018-01-18T00:18:05.688Z,6.47
2018-01-18T00:20:33.216Z,7.25
2018-01-18T00:23:00.622Z,7.50
2018-01-18T00:25:28.801Z,8.23
2018-01-18T00:27:56.250Z,6.70
2018-01-18T00:30:23.669Z,7.25
2018-01-18T00:32:51.866Z,7.18
2018-01-18T00:35:20.069Z,6.87
2018-01-18T00:37:47.561Z,7.25
2018-01-18T00:40:15.028Z,8.73
2018-01-18T00:42:42.482Z,8.55
2018-01-18T00:45:09.915Z,8.80
2018-01-18T00:47:38.089Z,8.10
2018-01-18T00:50:05.608Z,8.18
2018-01-18T00:52:33.030Z,8.13
2018-01-18T00:55:01.947Z,9.35
2018-01-18T00:57:30.122Z,9.30
2018-01-18T00:59:58.312Z,7.45
2018-01-18T01:02:26.488Z,9.07
2018-01-18T01:04:54.725Z,8.38
2018-01-18T01:07:22.131Z,9.02
2018-01-18T01:09:49.558Z,8.73
2018-01-18T01:12:16.986Z,7.65
2018-01-18T01:14:44.589Z,7.07
2018-01-18T01:17:11.998Z,8.40
2018-01-18T01:19:39.430Z,7.45
2018-01-18T01:22:06.857Z,8.30
2018-01-18T01:24:34.275Z,9.02
2018-01-18T01:27:01.759Z,8.95
2018-01-18T01:29:29.165Z,10.82
2018-01-18T01:31:57.375Z,9.50
2018-01-18T01:34:24.816Z,9.43
2018-01-18T01:36:52.233Z,10.57
2018-01-18T01:39:19.657Z,10.90
2018-01-18T01:41:47.916Z,11.60
2018-01-18T01:44:15.369Z,10.73
2018-01-18T01:46:42.826Z,11.18
2018-01-18T01:49:10.249Z,11.70
2018-01-18T01:51:38.461Z,11.30
2018-01-18T01:54:05.881Z,10.68
2018-01-18T01:56:33.411Z,11.93
2018-01-18T01:59:00.829Z,11.50
2018-01-18T02:01:28.353Z,10.85
2018-01-18T02:03:55.828Z,11.75
2018-01-18T02:06:23.245Z,11.57
2018-01-18T02:08:50.670Z,10.88
2018-01-18T02:11:18.138Z,11.30
2018-01-18T02:13:45.542Z,10.13
2018-01-18T02:16:12.961Z,10.15
2018-01-18T02:18:40.386Z,11.18
2018-01-18T02:21:07.892Z,10.52
2018-01-18T02:23:35.352Z,10.68
2018-01-18T02:26:02.777Z,10.50
2018-01-18T02:28:30.221Z,10.55
2018-01-18T02:30:57.671Z,9.68
2018-01-18T02:33:25.083Z,8.52
2018-01-18T02:35:52.530Z,9.23
2018-01-18T02:38:19.943Z,10.10
2018-01-18T02:40:48.161Z,9.43
2018-01-18T02:43:15.594Z,8.50
2018-01-18T02:45:43.773Z,9.18
2018-01-18T02:48:11.206Z,9.10
2018-01-18T02:50:38.626Z,8.85
2018-01-18T02:53:06.836Z,8.30
2018-01-18T02:55:34.253Z,9.07
2018-01-18T02:58:01.779Z,7.28
2018-01-18T03:00:29.218Z,8.20
2018-01-18T03:02:57.443Z,8.85
2018-01-18T03:05:24.853Z,8.32
2018-01-18T03:07:52.303Z,8.05
2018-01-18T03:10:19.742Z,8.98
2018-01-18T03:12:47.210Z,7.07
2018-01-18T03:15:15.382Z,7.05
2018-01-18T03:17:42.813Z,8.07
2018-01-18T03:20:10.221Z,7.00
2018-01-18T03:22:37.659Z,8.40
2018-01-18T03:25:05.889Z,7.12
2018-01-18T03:27:33.309Z,8.02
2018-01-18T03:30:00.757Z,7.57
2018-01-18T03:32:28.265Z,8.15
2018-01-18T03:34:56.477Z,5.90
2018-01-18T03:37:23.938Z,6.43
2018-01-18T03:39:51.356Z,6.93
2018-01-18T03:42:18.901Z,6.20
2018-01-18T03:44:46.303Z,6.25
2018-01-18T03:47:13.734Z,6.62
2018-01-18T03:49:41.161Z,5.78
2018-01-18T03:52:09.329Z,6.12
2018-01-18T03:54:36.947Z,5.53
2018-01-18T03:57:04.365Z,5.90
2018-01-18T03:59:31.885Z,5.82
2018-01-18T04:01:59.321Z,5.35
2018-01-18T04:04:27.530Z,5.28
2018-01-18T04:06:54.958Z,5.30
2018-01-18T04:09:22.473Z,5.07
2018-01-18T04:11:49.897Z,5.10
2018-01-18T04:14:17.335Z,4.35
2018-01-18T04:16:44.780Z,5.60
2018-01-18T04:19:12.204Z,5.05
2018-01-18T04:21:39.714Z,5.93
2018-01-18T04:24:07.152Z,6.18
2018-01-18T04:26:35.333Z,5.75
2018-01-18T04:29:03.509Z,4.80
2018-01-18T04:31:30.956Z,5.10
2018-01-18T04:33:58.352Z,4.60
2018-01-18T04:36:26.567Z,5.40
2018-01-18T04:38:54.760Z,4.75
2018-01-18T04:41:22.177Z,4.85
2018-01-18T04:43:49.603Z,4.65
2018-01-18T04:46:17.145Z,4.70
2018-01-18T04:48:45.335Z,3.80
2018-01-18T04:51:12.832Z,4.60
2018-01-18T04:53:40.296Z,4.80
2018-01-18T04:56:07.729Z,3.80
2018-01-18T04:58:35.911Z,4.93
2018-01-18T05:01:04.106Z,5.15
2018-01-18T05:03:32.329Z,4.35
2018-01-18T05:05:59.741Z,4.35
2018-01-18T05:08:27.161Z,6.22
2018-01-18T05:10:54.573Z,5.22
2018-01-18T05:13:22.131Z,6.00
2018-01-18T05:15:49.568Z,5.70
2018-01-18T05:18:17.029Z,6.47
2018-01-18T05:20:44.514Z,5.97
2018-01-18T05:23:11.960Z,5.62
2018-01-18T05:25:40.137Z,6.03
2018-01-18T05:28:08.316Z,5.62
2018-01-18T05:30:36.509Z,5.95
2018-01-18T05:33:04.698Z,5.85
2018-01-18T05:35:33.053Z,5.45
2018-01-18T05:38:00.530Z,5.57
2018-01-18T05:40:27.954Z,6.05
2018-01-18T05:42:55.366Z,5.80
2018-01-18T05:45:22.781Z,6.35
2018-01-18T05:47:50.219Z,6.20
2018-01-18T05:50:18.401Z,5.32
2018-01-18T05:52:46.651Z,5.50
2018-01-18T05:55:14.085Z,4.55
2018-01-18T05:57:42.270Z,5.18
2018-01-18T06:00:09.678Z,5.12
2018-01-18T06:02:37.113Z,5.68
2018-01-18T06:05:04.542Z,5.68
2018-01-18T06:07:32.742Z,5.12
2018-01-18T06:10:00.921Z,4.60
2018-01-18T06:12:29.128Z,4.35
2018-01-18T06:14:56.565Z,5.00
2018-01-18T06:17:23.978Z,5.05
2018-01-18T06:19:51.385Z,5.25
2018-01-18T06:22:18.821Z,6.47
2018-01-18T06:24:46.285Z,5.07
2018-01-18T06:27:13.733Z,4.70
2018-01-18T06:29:41.885Z,4.62
2018-01-18T06:32:09.312Z,2.83
2018-01-18T06:34:36.725Z,4.00
2018-01-18T06:37:04.250Z,4.45
2018-01-18T06:39:31.660Z,3.17
2018-01-18T06:41:59.193Z,2.92
2018-01-18T06:44:26.598Z,3.50
2018-01-18T06:46:54.113Z,3.10
2018-01-18T06:49:21.591Z,2.90
2018-01-18T06:51:49.026Z,3.67
2018-01-18T06:54:17.293Z,2.33
2018-01-18T06:56:44.717Z,1.95
2018-01-18T06:59:12.105Z,2.78
2018-01-18T07:01:39.513Z,2.55
2018-01-18T07:04:07.738Z,2.58
2018-01-18T07:06:35.121Z,2.53
2018-01-18T07:09:02.628Z,1.33
2018-01-18T07:11:30.805Z,2.60
2018-01-18T07:13:58.237Z,3.00
2018-01-18T07:16:25.623Z,2.30
2018-01-18T07:18:53.085Z,2.00
2018-01-18T07:21:20.502Z,1.98
2018-01-18T07:23:48.676Z,2.10
2018-01-18T07:26:16.093Z,1.75
2018-01-18T07:28:43.538Z,1.90
2018-01-18T07:31:11.692Z,1.12
2018-01-18T07:33:39.111Z,2.42
2018-01-18T07:36:06.543Z,1.25
2018-01-18T07:38:34.721Z,1.87
2018-01-18T07:41:02.238Z,1.40
2018-01-18T07:43:29.668Z,1.50
2018-01-18T07:45:57.899Z,1.90
2018-01-18T07:48:25.453Z,1.20
2018-01-18T07:50:53.619Z,1.30
2018-01-18T07:53:21.057Z,1.60
2018-01-18T07:55:48.500Z,1.90
2018-01-18T07:58:15.925Z,1.20
2018-01-18T08:00:43.360Z,1.17
2018-01-18T08:03:16.379Z,1.20
2018-01-18T08:05:44.873Z,1.33
2018-01-18T08:08:12.271Z,0.80
2018-01-18T08:10:39.726Z,1.10
2018-01-18T08:13:07.150Z,0.90
2018-01-18T08:15:34.574Z,0.80
2018-01-18T08:18:02.006Z,0.62
2018-01-18T08:20:30.238Z,1.02
2018-01-18T08:22:57.709Z,0.80
2018-01-18T08:25:25.122Z,0.80
2018-01-18T08:27:52.650Z,1.10
2018-01-18T08:30:20.082Z,0.75
2018-01-18T08:32:47.487Z,1.00
2018-01-18T08:35:14.935Z,0.62
2018-01-18T08:37:42.350Z,0.90
2018-01-18T08:40:09.865Z,0.95
2018-01-18T08:42:37.303Z,0.57
2018-01-18T08:45:05.489Z,0.80
2018-01-18T08:47:33.696Z,0.60
2018-01-18T08:50:01.190Z,0.80
2018-01-18T08:52:28.589Z,0.90
2018-01-18T08:54:56.014Z,0.82
2018-01-18T08:57:24.242Z,0.80
2018-01-18T08:59:51.676Z,1.12
2018-01-18T09:02:19.096Z,0.70
2018-01-18T09:04:46.538Z,0.93
2018-01-18T09:07:14.014Z,1.08
2018-01-18T09:09:41.542Z,1.10
2018-01-18T09:12:08.950Z,0.85
2018-01-18T09:14:36.389Z,0.80
2018-01-18T09:17:03.845Z,0.70
2018-01-18T09:19:31.258Z,1.02
2018-01-18T09:21:58.688Z,0.70
2018-01-18T09:24:26.112Z,0.60
2018-01-18T09:26:53.741Z,0.60
2018-01-18T09:29:21.160Z,0.68
2018-01-18T09:31:48.612Z,1.00
2018-01-18T09:34:16.022Z,0.70
2018-01-18T09:36:43.710Z,0.80
2018-01-18T09:39:11.864Z,0.80
2018-01-18T09:41:41.733Z,0.95
2018-01-18T09:44:09.112Z,0.85
2018-01-18T09:46:36.566Z,1.15
2018-01-18T09:49:03.969Z,1.30
2018-01-18T09:51:31.427Z,1.37
2018-01-18T09:53:58.841Z,1.40
2018-01-18T09:56:26.253Z,1.50
2018-01-18T09:58:53.683Z,1.17
2018-01-18T10:01:21.914Z,1.50
2018-01-18T10:03:49.366Z,1.50
2018-01-18T10:06:16.835Z,2.00
2018-01-18T10:08:44.305Z,1.70
2018-01-18T10:11:11.713Z,1.90
2018-01-18T10:13:39.125Z,1.43
2018-01-18T10:16:06.601Z,1.77
2018-01-18T10:18:34.078Z,2.10
2018-01-18T10:21:01.493Z,1.42
2018-01-18T10:23:29.720Z,2.10
2018-01-18T10:25:57.217Z,2.03
2018-01-18T10:28:24.650Z,2.20
2018-01-18T10:30:52.076Z,2.60
2018-01-18T10:33:19.497Z,1.70
2018-01-18T10:35:46.938Z,2.65
2018-01-18T10:38:15.148Z,1.80
2018-01-18T10:40:43.348Z,2.73
2018-01-18T10:43:10.824Z,2.70
2018-01-18T10:45:38.976Z,2.67
2018-01-18T10:48:06.370Z,2.70
2018-01-18T10:50:33.921Z,2.70
2018-01-18T10:53:01.447Z,3.07
2018-01-18T10:55:28.869Z,2.77
2018-01-18T10:57:56.308Z,3.00
2018-01-18T11:00:23.695Z,3.13
2018-01-18T11:02:51.110Z,3.47
2018-01-18T11:05:18.577Z,2.90
2018-01-18T11:07:45.989Z,3.60
2018-01-18T11:10:14.445Z,3.23
2018-01-18T11:12:41.969Z,2.50
2018-01-18T11:15:09.437Z,3.10
2018-01-18T11:17:36.865Z,2.80
2018-01-18T11:20:04.279Z,2.03
2018-01-18T11:22:31.694Z,2.23
2018-01-18T11:24:59.112Z,1.83
2018-01-18T11:27:26.587Z,2.17
2018-01-18T11:29:54.765Z,2.13
2018-01-18T11:32:22.186Z,2.50
2018-01-18T11:34:49.702Z,1.67
2018-01-18T11:37:17.129Z,2.07
2018-01-18T11:39:44.580Z,1.80
2018-01-18T11:42:12.011Z,1.40
2018-01-18T11:44:39.413Z,1.23
2018-01-18T11:47:06.825Z,1.40
2018-01-18T11:49:35.010Z,1.40
2018-01-18T11:52:03.262Z,1.80
2018-01-18T11:54:30.793Z,1.67
2018-01-18T11:56:58.961Z,1.20
2018-01-18T11:59:27.207Z,1.40
2018-01-18T12:01:54.731Z,1.17
2018-01-18T12:04:22.149Z,1.50
2018-01-18T12:06:49.685Z,1.30
2018-01-18T12:09:17.120Z,1.00
2018-01-18T12:11:45.327Z,1.12
2018-01-18T12:14:12.798Z,0.80
2018-01-18T12:16:40.957Z,0.95
2018-01-18T12:19:09.141Z,1.35
2018-01-18T12:21:37.343Z,0.98
2018-01-18T12:24:04.759Z,0.90
2018-01-18T12:26:32.183Z,1.10
2018-01-18T12:28:59.686Z,0.80
2018-01-18T12:31:27.135Z,0.88
2018-01-18T12:33:54.554Z,1.23
2018-01-18T12:36:21.982Z,0.80
2018-01-18T12:38:49.418Z,1.08
2018-01-18T12:41:17.601Z,1.00
2018-01-18T12:43:45.019Z,1.35
2018-01-18T12:46:12.482Z,0.93
2018-01-18T12:48:39.928Z,1.00
2018-01-18T12:51:07.342Z,0.70
2018-01-18T12:53:34.761Z,0.65
2018-01-18T12:56:02.229Z,0.80
2018-01-18T12:58:29.621Z,0.68
2018-01-18T13:00:57.037Z,0.77
2018-01-18T13:03:25.241Z,0.70
2018-01-18T13:05:52.661Z,0.70
2018-01-18T13:08:20.198Z,0.60
2018-01-18T13:10:47.590Z,0.80
2018-01-18T13:13:15.071Z,0.80
2018-01-18T13:15:42.478Z,0.70
2018-01-18T13:18:09.884Z,0.70
2018-01-18T13:20:37.301Z,0.73
2018-01-18T13:23:05.483Z,0.82
2018-01-18T13:25:33.661Z,0.85
2018-01-18T13:28:01.833Z,1.30
2018-01-18T13:30:29.286Z,0.98
2018-01-18T13:32:56.713Z,1.10
2018-01-18T13:35:24.293Z,1.00
2018-01-18T13:37:52.455Z,1.08
2018-01-18T13:40:20.659Z,1.00
2018-01-18T13:42:48.137Z,1.42
2018-01-18T13:45:15.588Z,1.30
2018-01-18T13:47:43.915Z,1.33
2018-01-18T13:50:11.367Z,1.20
2018-01-18T13:52:38.796Z,1.30
2018-01-18T13:55:06.999Z,1.10
2018-01-18T13:57:34.405Z,1.20
2018-01-18T14:00:01.841Z,1.20
2018-01-18T14:02:29.267Z,1.05
2018-01-18T14:04:56.794Z,1.10
2018-01-18T14:07:24.953Z,1.60
2018-01-18T14:09:52.376Z,1.45
2018-01-18T14:12:19.818Z,1.40
2018-01-18T14:14:47.276Z,1.12
2018-01-18T14:17:14.874Z,1.55
2018-01-18T14:19:42.291Z,1.25
2018-01-18T14:22:10.470Z,1.73
2018-01-18T14:24:38.688Z,1.70
2018-01-18T14:27:06.154Z,1.20
2018-01-18T14:29:33.598Z,1.60
2018-01-18T14:32:01.775Z,1.50
2018-01-18T14:34:29.186Z,1.40
2018-01-18T14:36:56.650Z,1.30
2018-01-18T14:39:24.817Z,1.73
2018-01-18T14:41:52.233Z,1.42
2018-01-18T14:44:19.646Z,1.70
2018-01-18T14:46:47.377Z,1.40
2018-01-18T14:49:14.754Z,1.70
2018-01-18T14:51:42.161Z,1.58
2018-01-18T14:54:09.581Z,1.42
2018-01-18T14:56:37.021Z,2.20
2018-01-18T14:59:04.486Z,1.75
2018-01-18T15:01:31.928Z,1.80
2018-01-18T15:04:00.150Z,1.52
2018-01-18T15:06:27.574Z,1.75
2018-01-18T15:08:55.811Z,2.10
2018-01-18T15:11:23.259Z,1.75
2018-01-18T15:13:50.753Z,1.80
2018-01-18T15:16:18.168Z,1.77
2018-01-18T15:18:46.391Z,1.12
2018-01-18T15:21:13.810Z,1.30
2018-01-18T15:23:41.317Z,1.90
2018-01-18T15:26:08.755Z,1.85
2018-01-18T15:28:36.182Z,1.55
2018-01-18T15:31:03.620Z,1.52
2018-01-18T15:33:31.792Z,1.60
2018-01-18T15:35:59.985Z,1.52
2018-01-18T15:38:27.394Z,1.70
2018-01-18T15:40:54.829Z,1.50
2018-01-18T15:43:22.303Z,1.92
2018-01-18T15:45:49.783Z,1.50
2018-01-18T15:48:17.937Z,1.90
2018-01-18T15:50:46.160Z,1.60
2018-01-18T15:53:13.574Z,1.95
2018-01-18T15:55:41.002Z,1.73
2018-01-18T15:58:08.418Z,1.45
2018-01-18T16:00:36.593Z,1.90
2018-01-18T16:03:04.115Z,2.00
2018-01-18T16:05:31.813Z,2.00
2018-01-18T16:07:59.220Z,1.90
2018-01-18T16:10:27.420Z,1.90
2018-01-18T16:12:54.910Z,2.10
2018-01-18T16:15:23.110Z,2.30
2018-01-18T16:17:50.596Z,2.05
2018-01-18T16:20:18.054Z,2.70
2018-01-18T16:22:45.492Z,2.83
2018-01-18T16:25:12.966Z,2.80
2018-01-18T16:27:40.405Z,1.87
2018-01-18T16:30:08.609Z,2.33
2018-01-18T16:32:36.031Z,2.37
2018-01-18T16:35:03.437Z,2.00
2018-01-18T16:37:31.671Z,2.10
2018-01-18T16:39:59.123Z,2.05
2018-01-18T16:42:26.550Z,2.65
2018-01-18T16:44:53.967Z,1.75
2018-01-18T16:47:21.376Z,2.05
2018-01-18T16:49:48.828Z,1.70
2018-01-18T16:52:16.233Z,2.00
2018-01-18T16:54:44.493Z,1.60
2018-01-18T16:57:11.938Z,1.62
2018-01-18T16:59:39.345Z,1.35
2018-01-18T17:02:07.576Z,1.70
2018-01-18T17:04:35.032Z,1.87
2018-01-18T17:07:02.539Z,1.87
2018-01-18T17:09:29.963Z,3.20
2018-01-18T17:11:57.449Z,2.83
2018-01-18T17:14:24.885Z,2.10
2018-01-18T17:16:53.107Z,2.00
2018-01-18T17:19:20.514Z,2.15
2018-01-18T17:21:47.966Z,2.20
2018-01-18T17:24:15.386Z,2.30
2018-01-18T17:26:43.602Z,1.90
2018-01-18T17:29:11.010Z,2.50
2018-01-18T17:31:38.433Z,2.40
2018-01-18T17:34:05.850Z,2.20
2018-01-18T17:36:33.279Z,2.67
2018-01-18T17:39:00.742Z,2.00
2018-01-18T17:41:28.224Z,1.60
2018-01-18T17:43:55.681Z,2.10
2018-01-18T17:46:23.120Z,2.00
2018-01-18T17:48:51.331Z,2.60
2018-01-18T17:51:18.842Z,2.27
2018-01-18T17:53:46.269Z,2.80
2018-01-18T17:56:13.696Z,2.85
2018-01-18T17:58:41.210Z,2.80
2018-01-18T18:01:08.642Z,3.50
2018-01-18T18:03:36.821Z,3.17
2018-01-18T18:06:04.222Z,2.70
2018-01-18T18:08:31.630Z,2.47
2018-01-18T18:10:59.049Z,2.40
2018-01-18T18:13:26.537Z,2.40
2018-01-18T18:15:53.957Z,2.28
2018-01-18T18:18:21.441Z,1.50
2018-01-18T18:20:49.636Z,1.90
2018-01-18T18:23:17.889Z,2.00
2018-01-18T18:25:45.343Z,2.30
2018-01-18T18:28:12.774Z,2.15
2018-01-18T18:30:40.947Z,2.67
2018-01-18T18:33:08.367Z,2.53
2018-01-18T18:35:35.833Z,3.10
2018-01-18T18:38:03.242Z,3.00
2018-01-18T18:40:30.658Z,3.30
2018-01-18T18:42:58.148Z,3.10
2018-01-18T18:45:25.575Z,3.20
2018-01-18T18:47:53.760Z,3.47
2018-01-18T18:50:21.938Z,3.20
2018-01-18T18:52:49.358Z,3.03
2018-01-18T18:55:17.677Z,3.58
2018-01-18T18:57:45.135Z,3.45
2018-01-18T19:00:13.316Z,3.05
2018-01-18T19:02:40.730Z,2.40
2018-01-18T19:05:08.909Z,2.78
2018-01-18T19:07:36.325Z,3.03
2018-01-18T19:10:03.757Z,2.75
2018-01-18T19:12:31.163Z,2.95
2018-01-18T19:14:59.353Z,2.80
2018-01-18T19:17:26.790Z,2.62
2018-01-18T19:19:54.348Z,2.70
2018-01-18T19:22:21.763Z,2.62
2018-01-18T19:24:49.198Z,2.80
2018-01-18T19:27:16.672Z,2.78
2018-01-18T19:29:44.127Z,2.70
2018-01-18T19:32:11.582Z,2.58
2018-01-18T19:34:38.998Z,4.32
2018-01-18T19:37:07.996Z,2.70
2018-01-18T19:39:35.405Z,4.50
2018-01-18T19:42:02.821Z,2.67
2018-01-18T19:44:30.254Z,3.08
2018-01-18T19:46:57.674Z,2.85
2018-01-18T19:49:25.085Z,3.33
2018-01-18T19:51:52.522Z,2.20
2018-01-18T19:54:19.924Z,2.17
2018-01-18T19:56:47.349Z,2.30
2018-01-18T19:59:14.891Z,3.10
2018-01-18T20:01:42.309Z,2.90
2018-01-18T20:04:10.495Z,3.03
2018-01-18T20:06:38.710Z,2.75
2018-01-18T20:09:06.119Z,2.60
2018-01-18T20:11:33.561Z,2.40
2018-01-18T20:14:00.964Z,2.53
2018-01-18T20:16:28.394Z,2.50
2018-01-18T20:18:55.854Z,2.83
2018-01-18T20:21:23.329Z,2.65
2018-01-18T20:23:50.845Z,2.85
2018-01-18T20:26:18.259Z,2.20
2018-01-18T20:28:45.668Z,3.12
2018-01-18T20:31:13.117Z,2.70
2018-01-18T20:33:40.538Z,2.22
2018-01-18T20:36:08.754Z,2.37
2018-01-18T20:38:36.173Z,2.83
2018-01-18T20:41:03.689Z,2.87
2018-01-18T20:43:31.113Z,2.90
2018-01-18T20:45:58.597Z,2.70
2018-01-18T20:48:26.817Z,3.53
2018-01-18T20:50:54.229Z,2.95
2018-01-18T20:53:21.674Z,2.85
2018-01-18T20:55:49.121Z,2.90
2018-01-18T20:58:16.546Z,3.28
2018-01-18T21:00:44.757Z,2.90
2018-01-18T21:03:12.181Z,2.70
2018-01-18T21:05:39.601Z,2.40
2018-01-18T21:08:07.015Z,2.95
2018-01-18T21:10:34.465Z,2.50
2018-01-18T21:13:01.871Z,2.85
2018-01-18T21:15:30.102Z,3.00
2018-01-18T21:17:57.539Z,2.92
2018-01-18T21:20:25.750Z,2.95
2018-01-18T21:22:53.172Z,2.70
2018-01-18T21:25:20.595Z,2.97
2018-01-18T21:27:48.051Z,3.33
2018-01-18T21:30:15.478Z,2.70
2018-01-18T21:32:42.981Z,3.10
2018-01-18T21:35:10.407Z,3.05
2018-01-18T21:37:37.826Z,3.17
2018-01-18T21:40:05.237Z,3.00
2018-01-18T21:42:32.669Z,3.60
2018-01-18T21:45:00.098Z,3.00
2018-01-18T21:47:27.603Z,3.65
2018-01-18T21:49:55.054Z,3.12
2018-01-18T21:52:22.468Z,2.97
2018-01-18T21:54:49.898Z,2.95
2018-01-18T21:57:18.097Z,3.20
2018-01-18T21:59:45.568Z,3.17
2018-01-18T22:02:13.019Z,3.28
2018-01-18T22:04:40.435Z,2.83
2018-01-18T22:07:07.868Z,3.70
2018-01-18T22:09:35.273Z,3.35
2018-01-18T22:12:02.682Z,3.03
2018-01-18T22:14:30.105Z,3.65
2018-01-18T22:16:57.529Z,3.50
2018-01-18T22:19:24.956Z,3.70
2018-01-18T22:21:52.475Z,3.30
2018-01-18T22:24:19.943Z,3.40
2018-01-18T22:26:47.437Z,3.75
2018-01-18T22:29:14.856Z,3.50
2018-01-18T22:31:42.313Z,3.83
2018-01-18T22:34:10.507Z,3.60
2018-01-18T22:36:38.689Z,4.55
2018-01-18T22:39:06.869Z,3.03
2018-01-18T22:41:35.102Z,3.75
2018-01-18T22:44:02.670Z,3.90
2018-01-18T22:46:30.844Z,3.80
2018-01-18T22:48:58.326Z,4.03
2018-01-18T22:51:26.481Z,4.10
2018-01-18T22:53:54.702Z,3.45
2018-01-18T22:56:22.139Z,3.35
2018-01-18T22:58:50.386Z,3.50
2018-01-18T23:01:17.835Z,3.42
2018-01-18T23:03:45.404Z,4.20
2018-01-18T23:06:12.852Z,4.60
2018-01-18T23:08:40.261Z,3.92
2018-01-18T23:11:07.690Z,3.80
2018-01-18T23:13:35.105Z,4.30
2018-01-18T23:16:02.649Z,4.70
2018-01-18T23:18:30.157Z,3.70
2018-01-18T23:20:57.570Z,3.90
2018-01-18T23:23:25.055Z,4.32
2018-01-18T23:25:52.512Z,4.40
2018-01-18T23:28:19.937Z,4.10
2018-01-18T23:30:47.347Z,4.43
2018-01-18T23:33:14.818Z,4.40
2018-01-18T23:35:42.382Z,4.80
2018-01-18T23:38:10.539Z,4.68
2018-01-18T23:40:38.710Z,4.40
2018-01-18T23:43:06.908Z,4.40
2018-01-18T23:45:34.317Z,5.85
2018-01-18T23:48:01.748Z,4.40
2018-01-18T23:50:29.946Z,4.53
2018-01-18T23:52:57.380Z,4.75
2018-01-18T23:55:24.785Z,5.00
2018-01-18T23:57:52.219Z,4.85
